createdAt,value
2018-08-31T00:00:58.922Z,15.10
2018-08-31T00:01:58.863Z,17.50
2018-08-31T00:02:58.803Z,15.10
2018-08-31T00:03:58.746Z,16.30
2018-08-31T00:04:58.682Z,16.70
2018-08-31T00:05:58.621Z,15.20
2018-08-31T00:06:58.560Z,16.30
2018-08-31T00:07:58.505Z,16.00
2018-08-31T00:08:58.439Z,18.20
2018-08-31T00:09:58.379Z,15.10
2018-08-31T00:10:58.318Z,15.50
2018-08-31T00:11:58.257Z,17.90
2018-08-31T00:12:58.201Z,15.50
2018-08-31T00:13:58.140Z,16.60
2018-08-31T00:14:58.076Z,14.90
2018-08-31T00:15:58.016Z,16.60
2018-08-31T00:16:57.951Z,15.20
2018-08-31T00:17:57.897Z,15.60
2018-08-31T00:18:57.833Z,15.60
2018-08-31T00:19:57.771Z,16.30
2018-08-31T00:20:57.714Z,16.60
2018-08-31T00:21:57.651Z,16.20
2018-08-31T00:22:57.590Z,17.60
2018-08-31T00:23:57.530Z,16.10
2018-08-31T00:24:57.469Z,16.30
2018-08-31T00:25:57.428Z,17.60
2018-08-31T00:26:57.346Z,17.40
2018-08-31T00:27:57.287Z,17.40
2018-08-31T00:28:57.227Z,16.60
2018-08-31T00:29:57.166Z,16.70
2018-08-31T00:30:57.104Z,18.00
2018-08-31T00:31:57.041Z,17.20
2018-08-31T00:32:56.984Z,17.90
2018-08-31T00:33:56.929Z,18.50
2018-08-31T00:34:56.864Z,18.30
2018-08-31T00:35:56.803Z,16.80
2018-08-31T00:36:56.742Z,17.10
2018-08-31T00:37:56.681Z,17.00
2018-08-31T00:38:56.619Z,16.70
2018-08-31T00:39:56.559Z,16.20
2018-08-31T00:40:56.500Z,16.60
2018-08-31T00:41:56.435Z,17.80
2018-08-31T00:42:56.379Z,17.00
2018-08-31T00:43:56.317Z,17.40
2018-08-31T00:44:56.254Z,18.90
2018-08-31T00:45:56.192Z,17.10
2018-08-31T00:46:56.135Z,17.70
2018-08-31T00:47:56.078Z,17.20
2018-08-31T00:48:56.013Z,18.10
2018-08-31T00:49:55.955Z,18.70
2018-08-31T00:50:55.892Z,17.20
2018-08-31T00:51:55.835Z,18.40
2018-08-31T00:52:55.769Z,16.90
2018-08-31T00:53:55.711Z,18.80
2018-08-31T00:54:55.654Z,17.30
2018-08-31T00:55:55.589Z,18.90
2018-08-31T00:56:55.526Z,18.20
2018-08-31T00:57:55.510Z,18.30
2018-08-31T00:58:55.406Z,19.80
2018-08-31T00:59:55.344Z,18.00
2018-08-31T01:00:55.286Z,17.80
2018-08-31T01:01:55.224Z,17.40
2018-08-31T01:02:55.163Z,18.20
2018-08-31T01:03:55.108Z,18.00
2018-08-31T01:04:55.043Z,17.90
2018-08-31T01:05:54.981Z,18.40
2018-08-31T01:06:54.921Z,18.10
2018-08-31T01:07:54.858Z,18.40
2018-08-31T01:08:54.801Z,16.90
2018-08-31T01:09:54.748Z,17.30
2018-08-31T01:10:54.678Z,17.80
2018-08-31T01:11:54.617Z,19.40
2018-08-31T01:12:54.571Z,19.50
2018-08-31T01:13:54.500Z,18.30
2018-08-31T01:14:54.437Z,18.90
2018-08-31T01:15:54.377Z,17.90
2018-08-31T01:16:54.314Z,18.20
2018-08-31T01:17:54.258Z,18.70
2018-08-31T01:18:54.192Z,18.50
2018-08-31T01:19:54.133Z,17.40
2018-08-31T01:20:54.072Z,16.90
2018-08-31T01:21:54.011Z,16.60
2018-08-31T01:22:53.988Z,17.50
2018-08-31T01:23:53.889Z,18.10
2018-08-31T01:24:53.829Z,16.70
2018-08-31T01:25:53.766Z,16.70
2018-08-31T01:26:53.710Z,18.70
2018-08-31T01:27:53.649Z,17.90
2018-08-31T01:28:53.588Z,17.90
2018-08-31T01:29:53.524Z,19.70
2018-08-31T01:30:53.465Z,17.90
2018-08-31T01:31:53.406Z,17.50
2018-08-31T01:32:53.345Z,17.70
2018-08-31T01:33:53.284Z,16.40
2018-08-31T01:34:53.224Z,19.10
2018-08-31T01:35:53.164Z,17.50
2018-08-31T01:36:53.101Z,18.20
2018-08-31T01:37:53.040Z,18.00
2018-08-31T01:38:52.980Z,18.10
2018-08-31T01:39:52.923Z,18.60
2018-08-31T01:40:52.860Z,17.80
2018-08-31T01:41:52.796Z,19.00
2018-08-31T01:42:52.738Z,18.90
2018-08-31T01:43:52.678Z,18.50
2018-08-31T01:44:52.615Z,18.20
2018-08-31T01:45:52.554Z,18.90
2018-08-31T01:46:52.494Z,19.90
2018-08-31T01:47:52.435Z,18.90
2018-08-31T01:48:52.376Z,18.00
2018-08-31T01:49:52.312Z,16.50
2018-08-31T01:50:52.250Z,18.80
2018-08-31T01:51:52.192Z,19.60
2018-08-31T01:52:52.174Z,19.50
2018-08-31T01:53:52.070Z,18.20
2018-08-31T01:54:52.009Z,20.00
2018-08-31T01:55:51.955Z,18.70
2018-08-31T01:56:51.887Z,19.50
2018-08-31T01:57:51.825Z,19.80
2018-08-31T01:58:51.764Z,18.20
2018-08-31T01:59:51.705Z,18.70
2018-08-31T02:00:51.645Z,19.30
2018-08-31T02:01:51.583Z,20.30
2018-08-31T02:02:51.520Z,19.70
2018-08-31T02:03:51.462Z,18.30
2018-08-31T02:04:51.402Z,17.10
2018-08-31T02:05:51.341Z,17.70
2018-08-31T02:06:51.279Z,17.50
2018-08-31T02:07:51.216Z,18.10
2018-08-31T02:08:51.157Z,18.00
2018-08-31T02:09:51.103Z,17.30
2018-08-31T02:10:51.036Z,18.80
2018-08-31T02:11:50.975Z,17.20
2018-08-31T02:12:50.914Z,17.20
2018-08-31T02:13:50.853Z,18.50
2018-08-31T02:14:50.791Z,18.90
2018-08-31T02:15:50.731Z,19.30
2018-08-31T02:16:50.672Z,18.10
2018-08-31T02:17:50.609Z,17.70
2018-08-31T02:18:50.549Z,17.40
2018-08-31T02:19:50.487Z,18.20
2018-08-31T02:20:50.426Z,18.70
2018-08-31T02:21:50.367Z,18.30
2018-08-31T02:22:50.314Z,19.60
2018-08-31T02:23:50.246Z,17.40
2018-08-31T02:24:50.196Z,18.40
2018-08-31T02:25:50.126Z,21.20
2018-08-31T02:26:50.060Z,18.20
2018-08-31T02:27:50.002Z,21.10
2018-08-31T02:28:49.941Z,20.70
2018-08-31T02:29:49.875Z,20.90
2018-08-31T02:30:49.818Z,18.00
2018-08-31T02:31:49.758Z,21.40
2018-08-31T02:32:49.696Z,20.10
2018-08-31T02:33:49.636Z,19.50
2018-08-31T02:34:49.579Z,18.90
2018-08-31T02:35:49.515Z,19.40
2018-08-31T02:36:49.453Z,19.20
2018-08-31T02:37:49.392Z,19.70
2018-08-31T02:38:49.331Z,20.10
2018-08-31T02:39:49.275Z,19.30
2018-08-31T02:40:49.205Z,19.10
2018-08-31T02:41:49.153Z,21.50
2018-08-31T02:42:49.089Z,20.60
2018-08-31T02:43:49.026Z,18.70
2018-08-31T02:44:48.965Z,19.30
2018-08-31T02:45:48.910Z,20.80
2018-08-31T02:46:48.845Z,19.30
2018-08-31T02:47:48.783Z,22.00
2018-08-31T02:48:48.722Z,19.60
2018-08-31T02:49:48.660Z,19.10
2018-08-31T02:50:48.602Z,17.40
2018-08-31T02:51:48.539Z,20.10
2018-08-31T02:52:48.480Z,20.90
2018-08-31T02:53:48.416Z,18.90
2018-08-31T02:54:48.356Z,19.80
2018-08-31T02:55:48.293Z,20.90
2018-08-31T02:56:48.234Z,19.20
2018-08-31T02:57:48.172Z,19.90
2018-08-31T02:58:48.112Z,19.80
2018-08-31T02:59:48.051Z,23.20
2018-08-31T03:00:48.005Z,21.70
2018-08-31T03:01:47.929Z,19.10
2018-08-31T03:02:47.868Z,20.40
2018-08-31T03:03:47.808Z,21.60
2018-08-31T03:04:47.747Z,19.60
2018-08-31T03:05:47.684Z,20.10
2018-08-31T03:06:47.622Z,22.20
2018-08-31T03:07:47.563Z,20.80
2018-08-31T03:08:47.502Z,21.00
2018-08-31T03:09:47.440Z,20.50
2018-08-31T03:10:47.380Z,20.00
2018-08-31T03:11:47.320Z,21.30
2018-08-31T03:12:47.261Z,19.90
2018-08-31T03:13:47.194Z,20.30
2018-08-31T03:14:47.139Z,20.20
2018-08-31T03:15:47.076Z,20.80
2018-08-31T03:16:47.015Z,19.30
2018-08-31T03:17:46.954Z,20.40
2018-08-31T03:18:46.895Z,19.60
2018-08-31T03:19:46.832Z,20.30
2018-08-31T03:20:46.770Z,18.40
2018-08-31T03:21:46.707Z,19.50
2018-08-31T03:22:46.649Z,19.40
2018-08-31T03:23:46.591Z,17.80
2018-08-31T03:24:46.525Z,21.00
2018-08-31T03:25:46.467Z,18.90
2018-08-31T03:26:46.406Z,19.50
2018-08-31T03:27:46.343Z,19.70
2018-08-31T03:28:46.282Z,21.20
2018-08-31T03:29:46.219Z,19.60
2018-08-31T03:30:46.159Z,20.10
2018-08-31T03:31:46.099Z,19.70
2018-08-31T03:32:46.039Z,18.40
2018-08-31T03:33:45.975Z,19.90
2018-08-31T03:34:45.917Z,21.40
2018-08-31T03:35:45.856Z,19.20
2018-08-31T03:36:45.855Z,20.70
2018-08-31T03:37:45.732Z,19.30
2018-08-31T03:38:45.672Z,18.50
2018-08-31T03:39:45.611Z,21.40
2018-08-31T03:40:45.554Z,19.60
2018-08-31T03:41:45.490Z,19.20
2018-08-31T03:42:45.429Z,20.60
2018-08-31T03:43:45.368Z,19.70
2018-08-31T03:44:45.306Z,21.00
2018-08-31T03:45:45.244Z,20.70
2018-08-31T03:46:45.184Z,20.90
2018-08-31T03:47:45.124Z,19.60
2018-08-31T03:48:45.065Z,20.90
2018-08-31T03:49:45.001Z,19.50
2018-08-31T03:50:44.941Z,20.60
2018-08-31T03:51:44.881Z,18.90
2018-08-31T03:52:44.819Z,21.70
2018-08-31T03:53:44.759Z,20.60
2018-08-31T03:54:44.703Z,21.10
2018-08-31T03:55:44.636Z,19.60
2018-08-31T03:56:44.592Z,21.20
2018-08-31T03:57:44.513Z,20.70
2018-08-31T03:58:44.453Z,21.30
2018-08-31T03:59:44.397Z,20.50
2018-08-31T04:00:44.362Z,21.10
2018-08-31T04:01:44.270Z,20.80
2018-08-31T04:02:44.209Z,22.20
2018-08-31T04:03:44.149Z,20.10
2018-08-31T04:04:44.173Z,19.80
2018-08-31T04:05:44.026Z,19.40
2018-08-31T04:06:43.961Z,22.10
2018-08-31T04:07:43.906Z,20.50
2018-08-31T04:08:43.842Z,20.20
2018-08-31T04:09:43.783Z,21.50
2018-08-31T04:10:43.720Z,22.90
2018-08-31T04:11:43.675Z,22.00
2018-08-31T04:12:43.602Z,20.60
2018-08-31T04:13:43.540Z,21.20
2018-08-31T04:14:43.477Z,21.40
2018-08-31T04:15:43.416Z,23.30
2018-08-31T04:16:43.357Z,22.10
2018-08-31T04:17:43.294Z,21.20
2018-08-31T04:18:43.238Z,22.70
2018-08-31T04:19:43.174Z,21.00
2018-08-31T04:20:43.113Z,21.70
2018-08-31T04:21:43.081Z,20.50
2018-08-31T04:22:42.990Z,20.40
2018-08-31T04:23:42.930Z,21.10
2018-08-31T04:24:42.869Z,21.00
2018-08-31T04:25:42.806Z,22.20
2018-08-31T04:26:42.745Z,22.50
2018-08-31T04:27:42.684Z,19.70
2018-08-31T04:28:42.625Z,23.10
2018-08-31T04:29:42.563Z,23.60
2018-08-31T04:30:42.502Z,22.30
2018-08-31T04:31:42.441Z,21.90
2018-08-31T04:32:42.377Z,22.80
2018-08-31T04:33:42.318Z,24.00
2018-08-31T04:34:42.257Z,21.90
2018-08-31T04:35:42.201Z,21.00
2018-08-31T04:36:42.140Z,22.00
2018-08-31T04:37:42.075Z,23.90
2018-08-31T04:38:42.015Z,20.50
2018-08-31T04:39:41.956Z,21.80
2018-08-31T04:40:41.893Z,21.50
2018-08-31T04:41:41.833Z,20.60
2018-08-31T04:42:41.810Z,21.10
2018-08-31T04:43:41.708Z,20.70
2018-08-31T04:44:41.647Z,21.70
2018-08-31T04:45:41.586Z,21.50
2018-08-31T04:46:41.527Z,22.40
2018-08-31T04:47:41.465Z,22.80
2018-08-31T04:48:41.405Z,21.90
2018-08-31T04:49:41.344Z,22.20
2018-08-31T04:50:41.281Z,22.20
2018-08-31T04:51:41.220Z,22.20
2018-08-31T04:52:41.161Z,20.70
2018-08-31T04:53:41.098Z,20.40
2018-08-31T04:54:41.037Z,22.00
2018-08-31T04:55:40.977Z,20.90
2018-08-31T04:56:40.916Z,19.70
2018-08-31T04:57:40.874Z,20.70
2018-08-31T04:58:40.816Z,21.40
2018-08-31T04:59:40.735Z,20.80
2018-08-31T05:00:40.673Z,21.30
2018-08-31T05:01:40.616Z,20.40
2018-08-31T05:02:40.548Z,20.90
2018-08-31T05:03:40.489Z,20.50
2018-08-31T05:04:40.429Z,20.80
2018-08-31T05:05:40.366Z,19.70
2018-08-31T05:06:40.313Z,19.20
2018-08-31T05:07:40.244Z,19.50
2018-08-31T05:08:40.183Z,19.40
2018-08-31T05:09:40.125Z,20.70
2018-08-31T05:10:40.062Z,22.40
2018-08-31T05:11:39.999Z,22.70
2018-08-31T05:12:39.940Z,25.30
2018-08-31T05:13:39.879Z,24.20
2018-08-31T05:14:39.820Z,22.50
2018-08-31T05:15:39.755Z,23.70
2018-08-31T05:16:39.696Z,22.50
2018-08-31T05:17:39.635Z,23.20
2018-08-31T05:18:39.571Z,24.20
2018-08-31T05:19:39.511Z,22.40
2018-08-31T05:20:39.452Z,23.60
2018-08-31T05:21:39.389Z,23.00
2018-08-31T05:22:39.389Z,22.00
2018-08-31T05:23:39.269Z,21.50
2018-08-31T05:24:39.208Z,22.20
2018-08-31T05:25:39.150Z,21.40
2018-08-31T05:26:39.084Z,23.20
2018-08-31T05:27:39.027Z,22.70
2018-08-31T05:28:38.965Z,20.80
2018-08-31T05:29:38.903Z,22.20
2018-08-31T05:30:38.845Z,20.30
2018-08-31T05:31:38.781Z,24.00
2018-08-31T05:32:38.720Z,22.10
2018-08-31T05:33:38.658Z,22.70
2018-08-31T05:34:38.592Z,23.90
2018-08-31T05:35:38.537Z,23.00
2018-08-31T05:36:38.478Z,24.30
2018-08-31T05:37:38.416Z,26.90
2018-08-31T05:38:38.354Z,22.90
2018-08-31T05:39:38.294Z,23.90
2018-08-31T05:40:38.313Z,22.70
2018-08-31T05:41:38.174Z,24.90
2018-08-31T05:42:38.109Z,21.20
2018-08-31T05:43:38.049Z,23.80
2018-08-31T05:44:37.990Z,25.20
2018-08-31T05:45:37.929Z,26.40
2018-08-31T05:46:37.868Z,23.50
2018-08-31T05:47:37.827Z,24.60
2018-08-31T05:48:37.745Z,24.90
2018-08-31T05:49:37.683Z,22.40
2018-08-31T05:50:37.626Z,24.20
2018-08-31T05:51:37.564Z,22.60
2018-08-31T05:52:37.503Z,23.30
2018-08-31T05:53:37.483Z,22.30
2018-08-31T05:54:37.382Z,25.20
2018-08-31T05:55:37.319Z,23.80
2018-08-31T05:56:37.268Z,25.80
2018-08-31T05:57:37.199Z,21.70
2018-08-31T05:58:37.142Z,21.30
2018-08-31T05:59:37.077Z,24.80
2018-08-31T06:00:37.022Z,21.90
2018-08-31T06:01:36.990Z,23.40
2018-08-31T06:02:36.896Z,22.60
2018-08-31T06:03:36.836Z,22.30
2018-08-31T06:04:36.769Z,20.80
2018-08-31T06:05:36.712Z,21.50
2018-08-31T06:06:36.654Z,21.20
2018-08-31T06:07:36.592Z,22.20
2018-08-31T06:08:36.539Z,21.60
2018-08-31T06:09:36.469Z,22.20
2018-08-31T06:10:36.410Z,21.70
2018-08-31T06:11:36.349Z,23.10
2018-08-31T06:12:36.290Z,21.30
2018-08-31T06:13:36.230Z,23.10
2018-08-31T06:14:36.167Z,23.80
2018-08-31T06:15:36.108Z,24.40
2018-08-31T06:16:36.046Z,22.50
2018-08-31T06:17:35.984Z,23.00
2018-08-31T06:18:35.922Z,22.70
2018-08-31T06:19:35.863Z,23.80
2018-08-31T06:20:35.804Z,23.60
2018-08-31T06:21:35.742Z,25.40
2018-08-31T06:22:35.678Z,24.50
2018-08-31T06:23:35.621Z,22.80
2018-08-31T06:24:35.562Z,24.20
2018-08-31T06:25:35.500Z,22.80
2018-08-31T06:26:35.435Z,23.30
2018-08-31T06:27:35.378Z,21.80
2018-08-31T06:28:35.317Z,24.20
2018-08-31T06:29:35.258Z,25.40
2018-08-31T06:30:35.195Z,23.50
2018-08-31T06:31:35.138Z,22.90
2018-08-31T06:32:35.103Z,25.00
2018-08-31T06:33:35.013Z,23.80
2018-08-31T06:34:34.954Z,22.70
2018-08-31T06:35:34.891Z,24.20
2018-08-31T06:36:34.831Z,23.80
2018-08-31T06:37:34.768Z,22.10
2018-08-31T06:38:34.709Z,22.00
2018-08-31T06:39:34.649Z,23.00
2018-08-31T06:40:34.643Z,22.40
2018-08-31T06:41:34.526Z,25.10
2018-08-31T06:42:34.466Z,24.20
2018-08-31T06:43:34.406Z,21.60
2018-08-31T06:44:34.344Z,25.00
2018-08-31T06:45:34.287Z,25.70
2018-08-31T06:46:34.222Z,25.20
2018-08-31T06:47:34.164Z,22.10
2018-08-31T06:48:34.103Z,25.40
2018-08-31T06:49:34.041Z,23.50
2018-08-31T06:50:33.982Z,22.60
2018-08-31T06:51:34.052Z,21.50
2018-08-31T06:52:33.859Z,24.00
2018-08-31T06:53:33.798Z,23.10
2018-08-31T06:54:33.736Z,23.40
2018-08-31T06:55:33.677Z,23.70
2018-08-31T06:56:33.616Z,22.30
2018-08-31T06:57:33.556Z,20.70
2018-08-31T06:58:33.496Z,22.20
2018-08-31T06:59:33.434Z,21.10
2018-08-31T07:00:33.373Z,22.00
2018-08-31T07:01:33.312Z,21.00
2018-08-31T07:02:33.264Z,20.90
2018-08-31T07:03:33.241Z,19.50
2018-08-31T07:04:33.132Z,20.90
2018-08-31T07:05:33.072Z,21.50
2018-08-31T07:06:33.010Z,21.00
2018-08-31T07:07:32.949Z,21.10
2018-08-31T07:08:32.888Z,21.60
2018-08-31T07:09:32.827Z,21.10
2018-08-31T07:10:32.765Z,20.60
2018-08-31T07:11:32.702Z,21.10
2018-08-31T07:12:32.718Z,21.70
2018-08-31T07:13:32.579Z,21.20
2018-08-31T07:14:32.523Z,22.00
2018-08-31T07:15:32.465Z,21.30
2018-08-31T07:16:32.403Z,23.30
2018-08-31T07:17:32.340Z,22.50
2018-08-31T07:18:32.278Z,22.20
2018-08-31T07:19:32.219Z,21.10
2018-08-31T07:20:32.158Z,22.20
2018-08-31T07:21:32.100Z,22.10
2018-08-31T07:22:32.038Z,21.00
2018-08-31T07:23:31.976Z,21.70
2018-08-31T07:24:31.916Z,22.40
2018-08-31T07:25:31.936Z,22.70
2018-08-31T07:26:31.875Z,22.50
2018-08-31T07:27:31.746Z,21.90
2018-08-31T07:28:31.673Z,25.40
2018-08-31T07:29:31.610Z,25.00
2018-08-31T07:30:31.553Z,24.80
2018-08-31T07:31:31.490Z,26.50
2018-08-31T07:32:31.498Z,25.30
2018-08-31T07:33:31.365Z,26.70
2018-08-31T07:34:31.312Z,24.50
2018-08-31T07:35:31.249Z,27.40
2018-08-31T07:36:31.188Z,26.60
2018-08-31T07:37:31.125Z,27.00
2018-08-31T07:38:31.067Z,27.00
2018-08-31T07:39:31.004Z,24.30
2018-08-31T07:40:30.947Z,26.80
2018-08-31T07:41:30.882Z,27.30
2018-08-31T07:42:30.823Z,25.60
2018-08-31T07:43:30.762Z,29.30
2018-08-31T07:44:30.702Z,22.50
2018-08-31T07:45:30.641Z,24.70
2018-08-31T07:46:30.580Z,27.50
2018-08-31T07:47:30.519Z,26.80
2018-08-31T07:48:30.461Z,29.10
2018-08-31T07:49:30.400Z,24.10
2018-08-31T07:50:30.338Z,22.20
2018-08-31T07:51:30.276Z,23.90
2018-08-31T07:52:30.215Z,24.80
2018-08-31T07:53:30.159Z,24.40
2018-08-31T07:54:30.095Z,24.40
2018-08-31T07:55:30.035Z,24.60
2018-08-31T07:56:29.972Z,25.80
2018-08-31T07:57:29.911Z,23.60
2018-08-31T07:58:29.850Z,25.90
2018-08-31T07:59:29.790Z,26.60
2018-08-31T08:00:29.730Z,24.80
2018-08-31T08:01:29.669Z,25.40
2018-08-31T08:02:29.608Z,26.90
2018-08-31T08:03:29.549Z,23.90
2018-08-31T08:04:29.489Z,28.30
2018-08-31T08:05:29.452Z,25.80
2018-08-31T08:06:29.367Z,24.50
2018-08-31T08:07:29.341Z,26.70
2018-08-31T08:08:29.244Z,23.40
2018-08-31T08:09:29.183Z,25.40
2018-08-31T08:10:29.121Z,25.90
2018-08-31T08:11:29.063Z,25.60
2018-08-31T08:12:28.999Z,25.90
2018-08-31T08:13:28.936Z,24.50
2018-08-31T08:14:28.879Z,25.90
2018-08-31T08:15:28.834Z,27.50
2018-08-31T08:16:28.759Z,26.70
2018-08-31T08:17:28.696Z,27.20
2018-08-31T08:18:28.635Z,25.90
2018-08-31T08:19:28.575Z,25.60
2018-08-31T08:20:28.515Z,29.40
2018-08-31T08:21:28.452Z,27.20
2018-08-31T08:22:28.393Z,24.40
2018-08-31T08:23:28.333Z,25.80
2018-08-31T08:24:28.284Z,25.90
2018-08-31T08:25:28.213Z,25.30
2018-08-31T08:26:28.149Z,24.40
2018-08-31T08:27:28.092Z,23.80
2018-08-31T08:28:28.076Z,26.30
2018-08-31T08:29:27.967Z,24.30
2018-08-31T08:30:27.908Z,24.60
2018-08-31T08:31:27.846Z,23.90
2018-08-31T08:32:27.785Z,23.50
2018-08-31T08:33:27.724Z,25.50
2018-08-31T08:34:27.664Z,24.80
2018-08-31T08:35:27.604Z,27.30
2018-08-31T08:36:27.542Z,25.10
2018-08-31T08:37:27.480Z,23.20
2018-08-31T08:38:27.419Z,23.20
2018-08-31T08:39:27.361Z,24.80
2018-08-31T08:40:27.299Z,21.40
2018-08-31T08:41:27.238Z,25.00
2018-08-31T08:42:27.238Z,24.70
2018-08-31T08:43:27.121Z,23.70
2018-08-31T08:44:27.056Z,24.30
2018-08-31T08:45:26.996Z,23.90
2018-08-31T08:46:26.933Z,24.90
2018-08-31T08:47:26.880Z,22.90
2018-08-31T08:48:26.840Z,24.30
2018-08-31T08:49:26.755Z,24.30
2018-08-31T08:50:26.695Z,23.60
2018-08-31T08:51:26.633Z,23.20
2018-08-31T08:52:26.571Z,24.80
2018-08-31T08:53:26.506Z,22.40
2018-08-31T08:54:26.450Z,24.20
2018-08-31T08:55:26.391Z,23.40
2018-08-31T08:56:26.332Z,22.10
2018-08-31T08:57:26.270Z,23.80
2018-08-31T08:58:26.208Z,24.80
2018-08-31T08:59:26.150Z,23.20
2018-08-31T09:00:26.089Z,23.90
2018-08-31T09:01:26.025Z,23.40
2018-08-31T09:02:25.963Z,23.60
2018-08-31T09:03:25.909Z,23.00
2018-08-31T09:04:25.845Z,22.70
2018-08-31T09:05:25.788Z,23.80
2018-08-31T09:06:25.722Z,23.80
2018-08-31T09:07:25.663Z,24.10
2018-08-31T09:08:25.601Z,22.50
2018-08-31T09:09:25.543Z,23.50
2018-08-31T09:10:25.479Z,23.60
2018-08-31T09:11:25.420Z,25.50
2018-08-31T09:12:25.440Z,25.80
2018-08-31T09:13:25.298Z,24.60
2018-08-31T09:14:25.238Z,24.80
2018-08-31T09:15:25.177Z,22.60
2018-08-31T09:16:25.114Z,25.70
2018-08-31T09:17:25.055Z,24.00
2018-08-31T09:18:25.031Z,23.50
2018-08-31T09:19:24.939Z,25.50
2018-08-31T09:20:24.943Z,25.10
2018-08-31T09:21:24.813Z,23.10
2018-08-31T09:22:24.754Z,24.60
2018-08-31T09:23:24.695Z,23.90
2018-08-31T09:24:24.687Z,24.20
2018-08-31T09:25:24.567Z,24.80
2018-08-31T09:26:24.512Z,26.50
2018-08-31T09:27:24.452Z,24.30
2018-08-31T09:28:24.390Z,23.60
2018-08-31T09:29:24.327Z,24.40
2018-08-31T09:30:24.283Z,25.70
2018-08-31T09:31:24.209Z,25.90
2018-08-31T09:32:24.170Z,23.20
2018-08-31T09:33:24.088Z,25.20
2018-08-31T09:34:24.025Z,24.40
2018-08-31T09:35:23.967Z,26.80
2018-08-31T09:36:23.906Z,23.50
2018-08-31T09:37:23.846Z,24.10
2018-08-31T09:38:23.837Z,24.50
2018-08-31T09:39:23.724Z,23.80
2018-08-31T09:40:23.667Z,26.50
2018-08-31T09:41:23.605Z,25.20
2018-08-31T09:42:23.547Z,24.40
2018-08-31T09:43:23.482Z,23.80
2018-08-31T09:44:23.426Z,23.70
2018-08-31T09:45:23.361Z,26.00
2018-08-31T09:46:23.301Z,25.40
2018-08-31T09:47:23.252Z,24.60
2018-08-31T09:48:23.179Z,22.40
2018-08-31T09:49:23.139Z,24.30
2018-08-31T09:50:23.062Z,21.90
2018-08-31T09:51:23.000Z,21.70
2018-08-31T09:52:22.938Z,22.60
2018-08-31T09:53:22.878Z,23.90
2018-08-31T09:54:22.817Z,25.30
2018-08-31T09:55:22.756Z,22.90
2018-08-31T09:56:22.696Z,22.10
2018-08-31T09:57:22.685Z,22.10
2018-08-31T09:58:22.577Z,23.30
2018-08-31T09:59:22.512Z,22.00
2018-08-31T10:00:22.449Z,23.00
2018-08-31T10:01:22.409Z,23.50
2018-08-31T10:02:22.330Z,24.30
2018-08-31T10:03:22.272Z,24.70
2018-08-31T10:04:22.214Z,23.20
2018-08-31T10:05:22.148Z,22.40
2018-08-31T10:06:22.088Z,22.60
2018-08-31T10:07:22.026Z,23.10
2018-08-31T10:08:21.967Z,24.00
2018-08-31T10:09:21.904Z,22.70
2018-08-31T10:10:21.844Z,24.80
2018-08-31T10:11:21.783Z,23.40
2018-08-31T10:12:21.723Z,22.80
2018-08-31T10:13:21.676Z,22.20
2018-08-31T10:14:21.600Z,23.70
2018-08-31T10:15:21.545Z,25.10
2018-08-31T10:16:21.480Z,23.30
2018-08-31T10:17:21.422Z,23.40
2018-08-31T10:18:21.356Z,22.40
2018-08-31T10:19:21.296Z,25.50
2018-08-31T10:20:21.238Z,26.00
2018-08-31T10:21:21.174Z,24.70
2018-08-31T10:22:21.116Z,23.60
2018-08-31T10:23:21.054Z,24.40
2018-08-31T10:24:20.993Z,24.40
2018-08-31T10:25:20.938Z,23.50
2018-08-31T10:26:20.877Z,23.60
2018-08-31T10:27:20.808Z,26.30
2018-08-31T10:28:20.747Z,24.00
2018-08-31T10:29:20.685Z,24.90
2018-08-31T10:30:20.641Z,25.20
2018-08-31T10:31:20.566Z,24.60
2018-08-31T10:32:20.505Z,24.00
2018-08-31T10:33:20.445Z,24.80
2018-08-31T10:34:20.383Z,25.10
2018-08-31T10:35:20.321Z,26.10
2018-08-31T10:36:20.257Z,24.40
2018-08-31T10:37:20.199Z,24.10
2018-08-31T10:38:20.139Z,24.70
2018-08-31T10:39:20.079Z,24.30
2018-08-31T10:40:20.096Z,25.20
2018-08-31T10:41:19.954Z,25.40
2018-08-31T10:42:19.901Z,25.50
2018-08-31T10:43:19.830Z,27.50
2018-08-31T10:44:19.772Z,25.90
2018-08-31T10:45:19.725Z,24.80
2018-08-31T10:46:19.665Z,26.30
2018-08-31T10:47:19.589Z,25.80
2018-08-31T10:48:19.528Z,25.50
2018-08-31T10:49:19.467Z,27.00
2018-08-31T10:50:19.410Z,26.10
2018-08-31T10:51:19.345Z,26.20
2018-08-31T10:52:19.285Z,24.50
2018-08-31T10:53:19.224Z,24.50
2018-08-31T10:54:19.167Z,27.20
2018-08-31T10:55:19.101Z,25.80
2018-08-31T10:56:19.040Z,23.70
2018-08-31T10:57:18.983Z,27.00
2018-08-31T10:58:18.916Z,28.30
2018-08-31T10:59:18.857Z,27.40
2018-08-31T11:00:18.798Z,25.50
2018-08-31T11:01:18.736Z,24.30
2018-08-31T11:02:18.675Z,23.90
2018-08-31T11:03:18.612Z,25.00
2018-08-31T11:04:18.552Z,24.70
2018-08-31T11:05:18.491Z,25.20
2018-08-31T11:06:18.433Z,25.80
2018-08-31T11:07:18.369Z,22.70
2018-08-31T11:08:18.307Z,26.50
2018-08-31T11:09:18.248Z,21.70
2018-08-31T11:10:18.191Z,25.50
2018-08-31T11:11:18.126Z,28.50
2018-08-31T11:12:18.065Z,25.90
2018-08-31T11:13:18.004Z,26.20
2018-08-31T11:14:17.949Z,22.30
2018-08-31T11:15:17.983Z,25.20
2018-08-31T11:16:17.821Z,24.80
2018-08-31T11:17:17.764Z,24.40
2018-08-31T11:18:17.703Z,24.60
2018-08-31T11:19:17.639Z,23.30
2018-08-31T11:20:17.579Z,23.60
2018-08-31T11:21:17.522Z,21.40
2018-08-31T11:22:17.458Z,23.30
2018-08-31T11:23:17.396Z,23.70
2018-08-31T11:24:17.337Z,21.90
2018-08-31T11:25:17.276Z,21.10
2018-08-31T11:26:17.218Z,20.10
2018-08-31T11:27:17.168Z,19.50
2018-08-31T11:28:17.095Z,22.40
2018-08-31T11:29:17.038Z,22.50
2018-08-31T11:30:16.973Z,19.70
2018-08-31T11:31:16.915Z,21.70
2018-08-31T11:32:16.853Z,20.60
2018-08-31T11:33:16.799Z,21.80
2018-08-31T11:34:16.730Z,21.30
2018-08-31T11:35:16.670Z,20.50
2018-08-31T11:36:16.610Z,21.60
2018-08-31T11:37:16.550Z,20.70
2018-08-31T11:38:16.489Z,20.20
2018-08-31T11:39:16.430Z,22.80
2018-08-31T11:40:16.364Z,18.00
2018-08-31T11:41:16.307Z,16.90
2018-08-31T11:42:16.251Z,19.60
2018-08-31T11:43:16.250Z,18.90
2018-08-31T11:44:16.124Z,19.70
2018-08-31T11:45:16.065Z,21.20
2018-08-31T11:46:16.003Z,20.70
2018-08-31T11:47:15.952Z,20.10
2018-08-31T11:48:15.908Z,20.00
2018-08-31T11:49:15.823Z,21.70
2018-08-31T11:50:15.765Z,20.60
2018-08-31T11:51:15.701Z,21.00
2018-08-31T11:52:15.646Z,19.90
2018-08-31T11:53:15.579Z,20.90
2018-08-31T11:54:15.520Z,21.30
2018-08-31T11:55:15.537Z,19.20
2018-08-31T11:56:15.400Z,21.10
2018-08-31T11:57:15.339Z,22.30
2018-08-31T11:58:15.285Z,20.40
2018-08-31T11:59:15.220Z,19.50
2018-08-31T12:00:15.163Z,22.00
2018-08-31T12:01:15.135Z,19.70
2018-08-31T12:02:15.041Z,19.30
2018-08-31T12:03:14.978Z,20.80
2018-08-31T12:04:14.925Z,20.10
2018-08-31T12:05:14.858Z,20.60
2018-08-31T12:06:14.800Z,20.30
2018-08-31T12:07:14.737Z,20.90
2018-08-31T12:08:14.681Z,20.20
2018-08-31T12:09:14.616Z,19.30
2018-08-31T12:10:14.558Z,18.30
2018-08-31T12:11:14.495Z,20.90
2018-08-31T12:12:14.434Z,17.10
2018-08-31T12:13:14.374Z,19.90
2018-08-31T12:14:14.316Z,17.80
2018-08-31T12:15:14.254Z,18.00
2018-08-31T12:16:14.196Z,17.60
2018-08-31T12:17:14.136Z,17.80
2018-08-31T12:18:14.094Z,17.60
2018-08-31T12:19:14.014Z,18.90
2018-08-31T12:20:13.955Z,18.20
2018-08-31T12:21:13.895Z,18.20
2018-08-31T12:22:13.831Z,17.90
2018-08-31T12:23:13.773Z,17.40
2018-08-31T12:24:13.720Z,17.00
2018-08-31T12:25:13.653Z,20.40
2018-08-31T12:26:13.591Z,16.90
2018-08-31T12:27:13.532Z,18.20
2018-08-31T12:28:13.475Z,20.80
2018-08-31T12:29:13.410Z,21.10
2018-08-31T12:30:13.346Z,21.90
2018-08-31T12:31:13.302Z,20.90
2018-08-31T12:32:13.230Z,20.40
2018-08-31T12:33:13.168Z,23.00
2018-08-31T12:34:13.107Z,21.50
2018-08-31T12:35:13.048Z,22.40
2018-08-31T12:36:12.988Z,21.20
2018-08-31T12:37:12.977Z,21.90
2018-08-31T12:38:12.865Z,24.10
2018-08-31T12:39:12.805Z,23.90
2018-08-31T12:40:12.750Z,24.30
2018-08-31T12:41:12.685Z,20.20
2018-08-31T12:42:12.625Z,21.10
2018-08-31T12:43:12.561Z,22.10
2018-08-31T12:44:12.542Z,22.20
2018-08-31T12:45:12.443Z,20.90
2018-08-31T12:46:12.383Z,22.50
2018-08-31T12:47:12.325Z,21.00
2018-08-31T12:48:12.261Z,20.10
2018-08-31T12:49:12.201Z,20.80
2018-08-31T12:50:12.140Z,21.00
2018-08-31T12:51:12.078Z,20.00
2018-08-31T12:52:12.020Z,21.70